Time;durP1;ratioP1;P1;durP2;ratioP2;P2;SDS_P1;SDS_P2;PMS_P1;PMS_P2;Temp;Humidity;BMP_temperature;BMP_pressure;BME280_temperature;BME280_humidity;BME280_pressure;Samples;Min_cycle;Max_cycle;Signal;HPM_P1;HPM_P2
2023/11/19 00:07:03;;;;;;;1.23;0.20;;;1.20;94.70;;;;;;25475079;23;20013;-60
2023/11/19 00:17:05;;;;;;;0.65;0.20;;;1.60;94.00;;;;;;25476265;23;20006;-59
2023/11/19 00:27:08;;;;;;;0.50;0.20;;;2.10;94.20;;;;;;25476527;23;20012;-58
2023/11/19 00:37:10;;;;;;;0.95;0.38;;;2.10;94.80;;;;;;25475860;23;20060;-50
2023/11/19 00:47:12;;;;;;;0.68;0.30;;;2.30;94.30;;;;;;25514227;23;20433;-59
2023/11/19 00:57:14;;;;;;;1.38;0.40;;;2.40;95.00;;;;;;25475344;23;20005;-59
2023/11/19 01:07:16;;;;;;;0.70;0.40;;;2.40;95.40;;;;;;25474618;23;20013;-60
2023/11/19 01:17:18;;;;;;;1.77;0.38;;;2.30;94.40;;;;;;25473637;23;20400;-59
2023/11/19 01:27:20;;;;;;;0.88;0.40;;;2.20;94.70;;;;;;25471245;23;20016;-59
2023/11/19 01:37:21;;;;;;;0.45;0.20;;;1.80;94.10;;;;;;25473520;23;20013;-58
2023/11/19 01:47:24;;;;;;;0.38;0.20;;;1.50;95.30;;;;;;25514066;23;20005;-59
2023/11/19 01:57:26;;;;;;;1.30;0.30;;;1.40;94.90;;;;;;25472811;23;20005;-51
2023/11/19 02:07:27;;;;;;;0.47;0.20;;;1.20;95.20;;;;;;25472576;23;20009;-59
2023/11/19 02:17:31;;;;;;;0.20;0.17;;;1.10;95.10;;;;;;25470756;23;20333;-55
2023/11/19 02:27:55;;;;;;;0.63;0.20;;;1.10;94.50;;;;;;25471108;23;20088;-59
2023/11/19 02:38:03;;;;;;;0.73;0.20;;;1.10;94.50;;;;;;25508075;23;20085;-58
2023/11/19 02:48:06;;;;;;;0.98;0.22;;;1.60;93.10;;;;;;25510698;23;20009;-59
2023/11/19 02:58:19;;;;;;;0.45;0.30;;;1.70;94.20;;;;;;25468949;23;20009;-59
2023/11/19 03:08:24;;;;;;;1.20;0.50;;;1.60;93.80;;;;;;25512708;23;20006;-59
2023/11/19 03:18:28;;;;;;;1.08;0.30;;;1.30;94.40;;;;;;25477369;23;20005;-59
2023/11/19 03:28:30;;;;;;;0.82;0.40;;;1.10;94.80;;;;;;25477253;23;20373;-59
2023/11/19 03:38:32;;;;;;;0.52;0.30;;;1.30;94.00;;;;;;25478034;23;20068;-59
2023/11/19 03:48:34;;;;;;;0.80;0.30;;;1.50;93.60;;;;;;25477009;23;20006;-59
2023/11/19 03:58:36;;;;;;;0.98;0.30;;;1.60;93.30;;;;;;25477399;23;20333;-59
2023/11/19 04:08:38;;;;;;;0.77;0.30;;;1.60;93.60;;;;;;25475617;23;20012;-59
2023/11/19 04:18:39;;;;;;;0.43;0.15;;;1.40;94.80;;;;;;25476580;23;20025;-59
2023/11/19 04:28:41;;;;;;;0.30;0.10;;;1.50;94.20;;;;;;25475087;23;20001;-59
2023/11/19 04:38:43;;;;;;;0.32;0.15;;;1.60;93.60;;;;;;25475721;23;20014;-59
2023/11/19 04:48:45;;;;;;;1.05;0.30;;;1.80;92.70;;;;;;25475676;23;20009;-59
2023/11/19 04:58:47;;;;;;;0.50;0.20;;;1.90;93.20;;;;;;25475227;23;20005;-59
2023/11/19 05:08:49;;;;;;;0.68;0.20;;;1.90;93.20;;;;;;25474659;23;20005;-59
2023/11/19 05:18:50;;;;;;;2.28;0.30;;;1.80;93.60;;;;;;25474276;23;20002;-59
2023/11/19 05:28:52;;;;;;;0.85;0.50;;;1.50;94.20;;;;;;25473899;23;20010;-59
2023/11/19 05:38:57;;;;;;;1.77;0.45;;;1.40;94.80;;;;;;25473146;23;20099;-58
2023/11/19 05:48:59;;;;;;;1.88;0.75;;;1.30;95.20;;;;;;25472398;23;20010;-59
2023/11/19 05:59:02;;;;;;;1.40;0.60;;;1.40;95.00;;;;;;25339746;23;20010;-59
2023/11/19 06:09:06;;;;;;;1.63;0.80;;;1.50;95.30;;;;;;25339457;23;20014;-59
2023/11/19 06:19:07;;;;;;;1.48;0.80;;;1.50;95.30;;;;;;25338727;23;20351;-59
2023/11/19 06:29:18;;;;;;;2.08;0.82;;;1.40;95.10;;;;;;25443821;23;20014;-59
2023/11/19 06:39:20;;;;;;;1.37;1.00;;;1.40;95.80;;;;;;25502514;23;20009;-56
2023/11/19 06:49:23;;;;;;;1.50;0.80;;;1.00;96.80;;;;;;25470959;23;20519;-58
2023/11/19 06:59:25;;;;;;;1.45;0.82;;;1.00;97.10;;;;;;25471309;23;20072;-59
2023/11/19 07:09:27;;;;;;;2.55;0.80;;;1.10;97.50;;;;;;25470738;23;20005;-59
2023/11/19 07:19:30;;;;;;;2.03;0.70;;;1.40;97.10;;;;;;25470532;23;20009;-58
2023/11/19 07:29:33;;;;;;;2.30;0.57;;;1.70;97.20;;;;;;25470890;23;20052;-57
2023/11/19 07:39:35;;;;;;;1.40;0.60;;;2.50;95.30;;;;;;25469521;23;20380;-57
2023/11/19 07:49:36;;;;;;;2.55;0.40;;;3.30;93.80;;;;;;25468289;23;20009;-57
2023/11/19 07:59:39;;;;;;;0.70;0.50;;;4.40;93.60;;;;;;25476106;23;20337;-56
2023/11/19 08:09:41;;;;;;;3.22;0.50;;;5.20;92.00;;;;;;25476750;23;20016;-56
2023/11/19 08:19:42;;;;;;;0.65;0.30;;;5.60;92.30;;;;;;25476274;23;20009;-53
2023/11/19 08:29:47;;;;;;;1.08;0.50;;;6.20;90.70;;;;;;25476218;23;20010;-58
2023/11/19 08:39:53;;;;;;;1.77;0.70;;;6.60;90.70;;;;;;25475435;23;20065;-57
2023/11/19 08:49:55;;;;;;;0.80;0.40;;;7.20;90.40;;;;;;25515413;23;20445;-51
2023/11/19 08:59:57;;;;;;;1.38;0.57;;;7.70;89.10;;;;;;25474965;23;20076;-56
2023/11/19 09:09:59;;;;;;;1.20;0.50;;;8.20;87.40;;;;;;25473480;23;20005;-57
2023/11/19 09:20:00;;;;;;;1.90;0.40;;;8.80;87.30;;;;;;25472777;23;20001;-48
2023/11/19 09:30:03;;;;;;;0.93;0.40;;;9.20;87.60;;;;;;25471666;23;20076;-57
2023/11/19 09:40:09;;;;;;;0.85;0.50;;;9.30;86.50;;;;;;25470871;23;20037;-57
2023/11/19 09:50:20;;;;;;;1.05;0.30;;;9.40;83.80;;;;;;25512750;23;20060;-54
2023/11/19 10:00:22;;;;;;;1.13;0.60;;;10.00;82.60;;;;;;25513482;23;20449;-49
2023/11/19 10:10:24;;;;;;;1.63;0.50;;;10.70;80.80;;;;;;25470138;23;20005;-57
2023/11/19 10:20:26;;;;;;;3.08;0.63;;;11.80;82.40;;;;;;25470336;23;20006;-52
2023/11/19 10:30:29;;;;;;;1.17;0.40;;;12.60;86.10;;;;;;25471904;23;20016;-51
2023/11/19 10:40:50;;;;;;;0.90;0.47;;;12.60;81.70;;;;;;25471467;23;20021;-51
2023/11/19 10:50:56;;;;;;;1.13;0.40;;;12.20;83.10;;;;;;25511307;23;20009;-49
2023/11/19 11:01:05;;;;;;;0.80;0.40;;;12.90;79.40;;;;;;25510990;23;20083;-49
2023/11/19 11:11:10;;;;;;;2.03;0.73;;;12.90;78.50;;;;;;25510440;23;20333;-50
2023/11/19 11:21:17;;;;;;;1.58;0.60;;;13.60;82.10;;;;;;25469617;23;20009;-50
2023/11/19 11:31:48;;;;;;;2.67;0.73;;;13.10;78.40;;;;;;25514059;23;20064;-52
2023/11/19 11:42:22;;;;;;;1.33;0.55;;;12.30;83.30;;;;;;25498894;23;20009;-50
2023/11/19 11:52:24;;;;;;;1.42;0.60;;;12.30;80.20;;;;;;25477173;23;20476;-46
2023/11/19 12:02:26;;;;;;;0.98;0.63;;;12.30;81.50;;;;;;25477318;23;20056;-52
2023/11/19 12:12:29;;;;;;;2.42;0.82;;;12.20;83.40;;;;;;25476747;23;20120;-50
2023/11/19 12:22:38;;;;;;;1.77;1.15;;;12.00;83.30;;;;;;25516980;23;20005;-52
2023/11/19 12:32:44;;;;;;;2.60;1.35;;;11.60;85.80;;;;;;25515690;23;20001;-59
2023/11/19 12:42:54;;;;;;;2.50;1.50;;;11.50;85.80;;;;;;25492642;23;20017;-54
2023/11/19 12:52:57;;;;;;;3.50;1.70;;;11.40;87.20;;;;;;25516290;23;20052;-51
2023/11/19 13:02:59;;;;;;;2.65;1.70;;;11.10;87.60;;;;;;25474262;23;20005;-48
2023/11/19 13:13:08;;;;;;;3.22;1.80;;;10.70;89.20;;;;;;25474551;23;20002;-52
2023/11/19 13:23:10;;;;;;;2.58;1.77;;;9.90;87.30;;;;;;25515119;23;20006;-48
2023/11/19 13:33:12;;;;;;;2.38;1.85;;;9.30;89.30;;;;;;25473908;23;20377;-55
2023/11/19 13:43:15;;;;;;;6.18;1.80;;;8.80;91.00;;;;;;25473343;23;20044;-58
2023/11/19 13:53:16;;;;;;;2.75;2.10;;;8.30;92.00;;;;;;25472867;23;20012;-50
2023/11/19 14:03:18;;;;;;;2.40;1.90;;;8.10;92.30;;;;;;25472254;23;20029;-50
2023/11/19 14:13:20;;;;;;;2.80;2.00;;;7.60;92.10;;;;;;25471528;23;20005;-52
2023/11/19 14:23:22;;;;;;;2.97;1.60;;;7.40;93.00;;;;;;25471012;23;20006;-58
2023/11/19 14:33:24;;;;;;;3.90;2.25;;;7.30;93.00;;;;;;25471257;23;20009;-50
2023/11/19 14:43:26;;;;;;;3.72;1.70;;;6.80;94.20;;;;;;25470020;23;20310;-58
2023/11/19 14:53:36;;;;;;;3.30;2.15;;;6.50;94.40;;;;;;25470506;23;20012;-59
2023/11/19 15:03:38;;;;;;;;;;;6.30;95.60;;;;;;25514022;23;20006;-59
2023/11/19 15:13:43;;;;;;;2.20;1.40;;;6.40;95.80;;;;;;25479476;23;19916;-55
2023/11/19 15:23:44;;;;;;;3.13;1.60;;;6.40;96.60;;;;;;25478885;23;20005;-53
2023/11/19 15:33:47;;;;;;;2.83;1.85;;;5.90;97.20;;;;;;25478636;23;20001;-56
2023/11/19 15:43:49;;;;;;;4.20;1.58;;;5.20;98.40;;;;;;25477918;23;20072;-54
2023/11/19 15:53:50;;;;;;;2.25;1.27;;;4.80;98.90;;;;;;25477885;23;20001;-54
2023/11/19 16:03:53;;;;;;;2.33;0.90;;;4.40;99.10;;;;;;25477457;23;20013;-56
2023/11/19 16:13:55;;;;;;;1.58;0.70;;;3.90;99.90;;;;;;25476853;23;20315;-50
2023/11/19 16:24:01;;;;;;;1.83;0.45;;;3.70;99.90;;;;;;25475562;23;20005;-50
2023/11/19 16:34:06;;;;;;;1.33;0.55;;;3.50;99.90;;;;;;25517048;23;20021;-51
2023/11/19 16:44:09;;;;;;;1.27;0.30;;;3.50;99.90;;;;;;25475523;23;20013;-58
2023/11/19 16:54:12;;;;;;;1.88;0.70;;;3.60;99.90;;;;;;25475436;23;20001;-59
2023/11/19 17:04:16;;;;;;;0.93;0.32;;;3.70;99.90;;;;;;25475172;23;20064;-49
2023/11/19 17:14:19;;;;;;;1.05;0.30;;;3.60;99.90;;;;;;25476229;23;20519;-60
2023/11/19 17:24:22;;;;;;;0.60;0.30;;;3.60;99.90;;;;;;25473908;23;20006;-60
2023/11/19 17:34:25;;;;;;;1.27;0.30;;;3.50;99.90;;;;;;25473307;23;20013;-54
2023/11/19 17:44:26;;;;;;;0.60;0.30;;;3.60;99.90;;;;;;25473413;23;20123;-60
2023/11/19 17:54:32;;;;;;;0.40;0.20;;;3.70;99.90;;;;;;25473365;23;20056;-60
2023/11/19 18:04:37;;;;;;;0.60;0.10;;;3.70;99.90;;;;;;25472820;23;20013;-61
2023/11/19 18:14:39;;;;;;;0.32;0.20;;;3.80;99.90;;;;;;25470770;23;20036;-60
2023/11/19 18:24:41;;;;;;;0.25;0.10;;;3.90;99.90;;;;;;25472324;23;20008;-55
2023/11/19 18:34:43;;;;;;;1.02;0.10;;;3.90;99.90;;;;;;25471978;23;20533;-59
2023/11/19 18:44:45;;;;;;;1.10;0.30;;;3.80;99.90;;;;;;25471208;23;20072;-59
2023/11/19 18:54:47;;;;;;;0.20;0.10;;;3.60;99.90;;;;;;25471505;23;20052;-60
2023/11/19 19:04:50;;;;;;;0.60;0.10;;;3.60;99.90;;;;;;25470652;23;20006;-50
2023/11/19 19:14:54;;;;;;;0.63;0.00;;;3.50;99.90;;;;;;25471000;23;20005;-57
2023/11/19 19:24:57;;;;;;;0.55;0.10;;;3.50;99.90;;;;;;25470093;23;20069;-58
2023/11/19 19:34:58;;;;;;;2.33;0.22;;;3.40;99.90;;;;;;25467731;23;20037;-60
2023/11/19 19:45:00;;;;;;;1.00;0.28;;;3.30;99.90;;;;;;25470175;23;20016;-59
2023/11/19 19:55:02;;;;;;;0.93;0.20;;;3.30;99.90;;;;;;25474439;23;20005;-59
2023/11/19 20:05:11;;;;;;;0.38;0.20;;;3.10;99.90;;;;;;25476577;23;20014;-58
2023/11/19 20:15:14;;;;;;;1.95;0.45;;;3.00;99.90;;;;;;25517894;23;20009;-59
2023/11/19 20:25:16;;;;;;;0.60;0.25;;;3.10;99.90;;;;;;25450708;23;20052;-53
2023/11/19 20:35:19;;;;;;;0.90;0.47;;;2.90;99.90;;;;;;25476388;23;20006;-47
2023/11/19 20:45:22;;;;;;;0.40;0.15;;;2.90;99.90;;;;;;25475841;23;20006;-48
2023/11/19 20:55:25;;;;;;;0.77;0.30;;;2.70;99.90;;;;;;25475514;23;20044;-53
2023/11/19 21:05:27;;;;;;;0.45;0.28;;;2.70;99.90;;;;;;25475024;23;20013;-49
2023/11/19 21:15:29;;;;;;;0.80;0.30;;;2.80;99.90;;;;;;25474252;23;20008;-49
2023/11/19 21:25:32;;;;;;;0.68;0.30;;;2.50;99.90;;;;;;25474249;23;20048;-53
2023/11/19 21:35:34;;;;;;;0.50;0.20;;;2.40;99.90;;;;;;25473730;23;20445;-59
2023/11/19 21:45:36;;;;;;;1.08;0.47;;;2.30;99.90;;;;;;25473117;23;20014;-59
2023/11/19 21:55:38;;;;;;;1.45;0.80;;;2.30;99.90;;;;;;25473230;23;20005;-58
2023/11/19 22:05:40;;;;;;;2.92;0.65;;;2.30;99.90;;;;;;25471053;23;20056;-51
2023/11/19 22:15:42;;;;;;;1.10;0.55;;;2.30;99.90;;;;;;25473885;23;20052;-49
2023/11/19 22:25:44;;;;;;;1.67;0.65;;;2.10;99.90;;;;;;25472235;23;20028;-50
2023/11/19 22:35:46;;;;;;;1.40;0.65;;;2.00;99.90;;;;;;25471862;23;20326;-60
2023/11/19 22:45:48;;;;;;;0.73;0.40;;;2.20;99.90;;;;;;25469211;23;20013;-56
2023/11/19 22:55:50;;;;;;;0.13;0.08;;;2.30;99.90;;;;;;25469514;23;20329;-60
2023/11/19 23:05:51;;;;;;;1.23;0.20;;;2.60;99.90;;;;;;25471064;23;20005;-59
2023/11/19 23:15:53;;;;;;;0.43;0.20;;;2.70;99.90;;;;;;25472356;23;20068;-59
2023/11/19 23:25:57;;;;;;;1.90;0.73;;;2.50;99.90;;;;;;25472673;23;20449;-57
2023/11/19 23:36:02;;;;;;;1.05;0.50;;;2.30;99.90;;;;;;25478580;23;20064;-60
2023/11/19 23:46:05;;;;;;;1.88;0.80;;;2.10;99.90;;;;;;25477737;23;20352;-60
2023/11/19 23:56:07;;;;;;;1.77;0.85;;;2.30;99.90;;;;;;25477943;23;20056;-47
